sensor_id;sensor_type;location;lat;lon;timestamp;pressure;altitude;pressure_sealevel;temperature
71807;BMP280;59655;42.590;23.364;2023-07-31T00:01:55;91307.13;;;21.05
71807;BMP280;59655;42.590;23.364;2023-07-31T00:04:20;91297.72;;;21.21
71807;BMP280;59655;42.590;23.364;2023-07-31T00:06:45;91303.88;;;21.24
71807;BMP280;59655;42.590;23.364;2023-07-31T00:09:11;91294.16;;;21.35
71807;BMP280;59655;42.590;23.364;2023-07-31T00:11:36;91293.00;;;21.22
71807;BMP280;59655;42.590;23.364;2023-07-31T00:14:02;91295.44;;;21.16
71807;BMP280;59655;42.590;23.364;2023-07-31T00:16:27;91287.59;;;21.22
71807;BMP280;59655;42.590;23.364;2023-07-31T00:18:53;91295.78;;;21.24
71807;BMP280;59655;42.590;23.364;2023-07-31T00:21:18;91290.59;;;21.30
71807;BMP280;59655;42.590;23.364;2023-07-31T00:23:44;91282.66;;;21.16
71807;BMP280;59655;42.590;23.364;2023-07-31T00:26:09;91275.97;;;20.86
71807;BMP280;59655;42.590;23.364;2023-07-31T00:28:34;91270.84;;;20.92
71807;BMP280;59655;42.590;23.364;2023-07-31T00:31:00;91280.97;;;21.09
71807;BMP280;59655;42.590;23.364;2023-07-31T00:33:26;91265.78;;;21.00
71807;BMP280;59655;42.590;23.364;2023-07-31T00:35:52;91263.41;;;20.92
71807;BMP280;59655;42.590;23.364;2023-07-31T00:38:17;91264.06;;;20.75
71807;BMP280;59655;42.590;23.364;2023-07-31T00:40:43;91257.47;;;20.78
71807;BMP280;59655;42.590;23.364;2023-07-31T00:43:08;91253.28;;;20.75
71807;BMP280;59655;42.590;23.364;2023-07-31T00:45:33;91249.97;;;20.76
71807;BMP280;59655;42.590;23.364;2023-07-31T00:47:59;91246.19;;;20.66
71807;BMP280;59655;42.590;23.364;2023-07-31T00:50:25;91240.44;;;20.73
71807;BMP280;59655;42.590;23.364;2023-07-31T00:52:50;91248.50;;;20.73
71807;BMP280;59655;42.590;23.364;2023-07-31T00:55:16;91242.84;;;20.67
71807;BMP280;59655;42.590;23.364;2023-07-31T00:57:42;91248.00;;;20.61
71807;BMP280;59655;42.590;23.364;2023-07-31T01:00:08;91255.56;;;20.49
71807;BMP280;59655;42.590;23.364;2023-07-31T01:02:34;91250.06;;;20.63
71807;BMP280;59655;42.590;23.364;2023-07-31T01:05:01;91252.75;;;20.63
71807;BMP280;59655;42.590;23.364;2023-07-31T01:12:32;91244.50;;;20.59
71807;BMP280;59655;42.590;23.364;2023-07-31T01:15:03;91242.50;;;20.59
71807;BMP280;59655;42.590;23.364;2023-07-31T01:17:28;91249.31;;;20.60
71807;BMP280;59655;42.590;23.364;2023-07-31T01:20:02;91246.78;;;20.48
71807;BMP280;59655;42.590;23.364;2023-07-31T01:28:11;91225.63;;;20.27
71807;BMP280;59655;42.590;23.364;2023-07-31T01:30:41;91221.31;;;20.20
71807;BMP280;59655;42.590;23.364;2023-07-31T01:33:08;91217.63;;;20.13
71807;BMP280;59655;42.590;23.364;2023-07-31T01:35:35;91223.19;;;20.17
71807;BMP280;59655;42.590;23.364;2023-07-31T01:38:01;91213.38;;;20.40
71807;BMP280;59655;42.590;23.364;2023-07-31T01:40:26;91220.66;;;20.21
71807;BMP280;59655;42.590;23.364;2023-07-31T01:42:52;91226.25;;;20.25
71807;BMP280;59655;42.590;23.364;2023-07-31T01:45:17;91216.59;;;20.36
71807;BMP280;59655;42.590;23.364;2023-07-31T01:47:43;91215.22;;;20.35
71807;BMP280;59655;42.590;23.364;2023-07-31T01:50:09;91217.28;;;20.05
71807;BMP280;59655;42.590;23.364;2023-07-31T01:52:34;91213.91;;;20.20
71807;BMP280;59655;42.590;23.364;2023-07-31T01:55:00;91214.50;;;20.19
71807;BMP280;59655;42.590;23.364;2023-07-31T01:57:25;91219.44;;;19.93
71807;BMP280;59655;42.590;23.364;2023-07-31T01:59:50;91225.09;;;19.99
71807;BMP280;59655;42.590;23.364;2023-07-31T02:02:18;91229.81;;;20.14
71807;BMP280;59655;42.590;23.364;2023-07-31T02:04:44;91232.19;;;19.92
71807;BMP280;59655;42.590;23.364;2023-07-31T02:07:09;91234.72;;;20.04
71807;BMP280;59655;42.590;23.364;2023-07-31T02:09:34;91241.44;;;20.03
71807;BMP280;59655;42.590;23.364;2023-07-31T02:12:00;91245.78;;;19.80
71807;BMP280;59655;42.590;23.364;2023-07-31T02:14:25;91235.03;;;20.10
71807;BMP280;59655;42.590;23.364;2023-07-31T02:16:50;91240.66;;;20.16
71807;BMP280;59655;42.590;23.364;2023-07-31T02:19:16;91244.16;;;20.19
71807;BMP280;59655;42.590;23.364;2023-07-31T02:21:41;91246.13;;;20.02
71807;BMP280;59655;42.590;23.364;2023-07-31T02:24:07;91257.16;;;19.93
71807;BMP280;59655;42.590;23.364;2023-07-31T02:26:32;91254.16;;;19.87
71807;BMP280;59655;42.590;23.364;2023-07-31T02:28:57;91253.88;;;19.80
71807;BMP280;59655;42.590;23.364;2023-07-31T02:31:23;91258.78;;;19.84
71807;BMP280;59655;42.590;23.364;2023-07-31T02:33:48;91247.56;;;19.90
71807;BMP280;59655;42.590;23.364;2023-07-31T02:36:14;91253.88;;;19.80
71807;BMP280;59655;42.590;23.364;2023-07-31T02:38:39;91247.44;;;19.72
71807;BMP280;59655;42.590;23.364;2023-07-31T02:41:05;91238.09;;;19.89
71807;BMP280;59655;42.590;23.364;2023-07-31T02:43:30;91236.72;;;20.03
71807;BMP280;59655;42.590;23.364;2023-07-31T02:45:56;91241.94;;;19.99
71807;BMP280;59655;42.590;23.364;2023-07-31T02:48:21;91242.28;;;19.92
71807;BMP280;59655;42.590;23.364;2023-07-31T02:50:47;91234.81;;;20.06
71807;BMP280;59655;42.590;23.364;2023-07-31T02:53:12;91240.31;;;20.08
71807;BMP280;59655;42.590;23.364;2023-07-31T02:55:38;91245.16;;;19.96
71807;BMP280;59655;42.590;23.364;2023-07-31T02:58:04;91246.78;;;19.87
71807;BMP280;59655;42.590;23.364;2023-07-31T03:00:29;91250.13;;;20.01
71807;BMP280;59655;42.590;23.364;2023-07-31T03:02:55;91250.88;;;20.04
71807;BMP280;59655;42.590;23.364;2023-07-31T03:05:20;91252.63;;;19.97
71807;BMP280;59655;42.590;23.364;2023-07-31T03:07:46;91254.34;;;19.91
71807;BMP280;59655;42.590;23.364;2023-07-31T03:10:11;91250.06;;;19.86
71807;BMP280;59655;42.590;23.364;2023-07-31T03:12:37;91253.31;;;19.68
71807;BMP280;59655;42.590;23.364;2023-07-31T03:15:02;91254.19;;;19.43
71807;BMP280;59655;42.590;23.364;2023-07-31T03:17:28;91259.19;;;19.49
71807;BMP280;59655;42.590;23.364;2023-07-31T03:19:53;91257.81;;;19.64
71807;BMP280;59655;42.590;23.364;2023-07-31T03:22:19;91258.97;;;19.45
71807;BMP280;59655;42.590;23.364;2023-07-31T03:24:44;91257.25;;;19.51
71807;BMP280;59655;42.590;23.364;2023-07-31T03:27:09;91261.94;;;19.51
71807;BMP280;59655;42.590;23.364;2023-07-31T03:29:35;91258.84;;;19.56
71807;BMP280;59655;42.590;23.364;2023-07-31T03:32:00;91269.31;;;19.64
71807;BMP280;59655;42.590;23.364;2023-07-31T03:34:26;91272.28;;;19.70
71807;BMP280;59655;42.590;23.364;2023-07-31T03:36:51;91262.09;;;19.69
71807;BMP280;59655;42.590;23.364;2023-07-31T03:39:16;91264.91;;;19.71
71807;BMP280;59655;42.590;23.364;2023-07-31T03:41:42;91272.06;;;19.80
71807;BMP280;59655;42.590;23.364;2023-07-31T03:44:07;91275.31;;;19.49
71807;BMP280;59655;42.590;23.364;2023-07-31T03:46:33;91276.00;;;19.49
71807;BMP280;59655;42.590;23.364;2023-07-31T03:48:59;91289.56;;;19.51
71807;BMP280;59655;42.590;23.364;2023-07-31T03:51:24;91281.50;;;19.38
71807;BMP280;59655;42.590;23.364;2023-07-31T03:53:50;91273.84;;;19.32
71807;BMP280;59655;42.590;23.364;2023-07-31T03:56:15;91273.84;;;19.18
71807;BMP280;59655;42.590;23.364;2023-07-31T03:58:40;91284.03;;;19.20
71807;BMP280;59655;42.590;23.364;2023-07-31T04:01:06;91283.00;;;19.27
71807;BMP280;59655;42.590;23.364;2023-07-31T04:03:31;91286.59;;;19.31
71807;BMP280;59655;42.590;23.364;2023-07-31T04:05:57;91284.31;;;19.40
71807;BMP280;59655;42.590;23.364;2023-07-31T04:08:22;91292.94;;;19.52
71807;BMP280;59655;42.590;23.364;2023-07-31T04:10:48;91298.16;;;19.34
71807;BMP280;59655;42.590;23.364;2023-07-31T04:13:14;91299.66;;;19.37
71807;BMP280;59655;42.590;23.364;2023-07-31T04:15:40;91293.94;;;19.45
71807;BMP280;59655;42.590;23.364;2023-07-31T04:18:05;91300.50;;;19.69
71807;BMP280;59655;42.590;23.364;2023-07-31T04:20:31;91301.41;;;19.60
71807;BMP280;59655;42.590;23.364;2023-07-31T04:22:56;91295.19;;;19.71
71807;BMP280;59655;42.590;23.364;2023-07-31T04:25:22;91293.50;;;19.78
71807;BMP280;59655;42.590;23.364;2023-07-31T04:27:47;91300.66;;;19.87
71807;BMP280;59655;42.590;23.364;2023-07-31T04:30:12;91296.00;;;19.74
71807;BMP280;59655;42.590;23.364;2023-07-31T04:32:38;91303.75;;;19.81
71807;BMP280;59655;42.590;23.364;2023-07-31T04:35:04;91302.41;;;19.67
71807;BMP280;59655;42.590;23.364;2023-07-31T04:37:29;91298.50;;;19.70
71807;BMP280;59655;42.590;23.364;2023-07-31T04:39:54;91301.78;;;19.68
71807;BMP280;59655;42.590;23.364;2023-07-31T04:42:20;91295.69;;;19.81
71807;BMP280;59655;42.590;23.364;2023-07-31T04:44:45;91295.50;;;19.77
71807;BMP280;59655;42.590;23.364;2023-07-31T04:47:11;91296.91;;;19.65
71807;BMP280;59655;42.590;23.364;2023-07-31T04:49:36;91290.44;;;19.56
71807;BMP280;59655;42.590;23.364;2023-07-31T04:52:02;91301.22;;;19.42
71807;BMP280;59655;42.590;23.364;2023-07-31T04:54:27;91308.53;;;19.26
71807;BMP280;59655;42.590;23.364;2023-07-31T04:56:53;91302.75;;;19.18
71807;BMP280;59655;42.590;23.364;2023-07-31T04:59:18;91299.06;;;19.25
71807;BMP280;59655;42.590;23.364;2023-07-31T05:01:43;91301.56;;;19.21
71807;BMP280;59655;42.590;23.364;2023-07-31T05:04:13;91292.09;;;19.20
71807;BMP280;59655;42.590;23.364;2023-07-31T05:06:39;91285.09;;;19.28
71807;BMP280;59655;42.590;23.364;2023-07-31T05:09:04;91290.59;;;19.30
71807;BMP280;59655;42.590;23.364;2023-07-31T05:11:30;91285.81;;;19.43
71807;BMP280;59655;42.590;23.364;2023-07-31T05:13:55;91284.88;;;19.52
71807;BMP280;59655;42.590;23.364;2023-07-31T05:16:20;91289.94;;;19.59
71807;BMP280;59655;42.590;23.364;2023-07-31T05:18:46;91288.06;;;19.62
71807;BMP280;59655;42.590;23.364;2023-07-31T05:21:11;91286.63;;;19.75
71807;BMP280;59655;42.590;23.364;2023-07-31T05:23:37;91278.31;;;19.85
71807;BMP280;59655;42.590;23.364;2023-07-31T05:26:04;91291.81;;;19.71
71807;BMP280;59655;42.590;23.364;2023-07-31T05:28:29;91276.94;;;19.83
71807;BMP280;59655;42.590;23.364;2023-07-31T05:30:59;91284.50;;;19.87
71807;BMP280;59655;42.590;23.364;2023-07-31T05:33:25;91279.75;;;20.01
71807;BMP280;59655;42.590;23.364;2023-07-31T05:35:50;91284.34;;;19.99
71807;BMP280;59655;42.590;23.364;2023-07-31T05:38:15;91284.34;;;19.99
71807;BMP280;59655;42.590;23.364;2023-07-31T05:40:42;91290.72;;;20.05
71807;BMP280;59655;42.590;23.364;2023-07-31T05:43:08;91271.34;;;20.09
71807;BMP280;59655;42.590;23.364;2023-07-31T05:45:34;91284.41;;;20.15
71807;BMP280;59655;42.590;23.364;2023-07-31T05:48:00;91291.28;;;20.18
71807;BMP280;59655;42.590;23.364;2023-07-31T05:50:25;91277.81;;;20.04
71807;BMP280;59655;42.590;23.364;2023-07-31T05:52:50;91285.03;;;19.99
71807;BMP280;59655;42.590;23.364;2023-07-31T05:55:16;91279.06;;;20.01
71807;BMP280;59655;42.590;23.364;2023-07-31T05:57:42;91271.50;;;20.13
71807;BMP280;59655;42.590;23.364;2023-07-31T06:00:08;91286.75;;;20.22
71807;BMP280;59655;42.590;23.364;2023-07-31T06:02:33;91290.84;;;20.23
71807;BMP280;59655;42.590;23.364;2023-07-31T06:05:02;91292.38;;;20.28
71807;BMP280;59655;42.590;23.364;2023-07-31T06:07:29;91301.16;;;20.13
71807;BMP280;59655;42.590;23.364;2023-07-31T06:09:54;91304.00;;;20.01
71807;BMP280;59655;42.590;23.364;2023-07-31T06:12:20;91299.88;;;20.14
71807;BMP280;59655;42.590;23.364;2023-07-31T06:14:46;91288.00;;;20.05
71807;BMP280;59655;42.590;23.364;2023-07-31T06:17:11;91295.75;;;20.13
71807;BMP280;59655;42.590;23.364;2023-07-31T06:19:37;91284.94;;;20.27
71807;BMP280;59655;42.590;23.364;2023-07-31T06:22:02;91291.28;;;20.34
71807;BMP280;59655;42.590;23.364;2023-07-31T06:24:28;91289.03;;;20.44
71807;BMP280;59655;42.590;23.364;2023-07-31T06:26:53;91290.16;;;20.39
71807;BMP280;59655;42.590;23.364;2023-07-31T06:29:19;91323.06;;;20.21
71807;BMP280;59655;42.590;23.364;2023-07-31T06:31:44;91292.59;;;20.33
71807;BMP280;59655;42.590;23.364;2023-07-31T06:34:10;91297.88;;;20.46
71807;BMP280;59655;42.590;23.364;2023-07-31T06:36:35;91280.25;;;20.43
71807;BMP280;59655;42.590;23.364;2023-07-31T06:39:00;91284.19;;;20.56
71807;BMP280;59655;42.590;23.364;2023-07-31T06:41:26;91284.59;;;20.50
71807;BMP280;59655;42.590;23.364;2023-07-31T06:43:51;91290.63;;;20.49
71807;BMP280;59655;42.590;23.364;2023-07-31T06:46:17;91286.34;;;20.60
71807;BMP280;59655;42.590;23.364;2023-07-31T06:48:42;91290.88;;;20.55
71807;BMP280;59655;42.590;23.364;2023-07-31T06:51:08;91300.28;;;20.70
71807;BMP280;59655;42.590;23.364;2023-07-31T06:53:33;91299.41;;;20.65
71807;BMP280;59655;42.590;23.364;2023-07-31T06:55:58;91295.06;;;20.74
71807;BMP280;59655;42.590;23.364;2023-07-31T06:58:24;91287.81;;;20.78
71807;BMP280;59655;42.590;23.364;2023-07-31T07:00:49;91295.66;;;20.57
71807;BMP280;59655;42.590;23.364;2023-07-31T07:03:18;91300.19;;;20.68
71807;BMP280;59655;42.590;23.364;2023-07-31T07:05:43;91293.41;;;20.67
71807;BMP280;59655;42.590;23.364;2023-07-31T07:08:08;91294.53;;;20.62
71807;BMP280;59655;42.590;23.364;2023-07-31T07:10:34;91304.50;;;20.59
71807;BMP280;59655;42.590;23.364;2023-07-31T07:12:59;91300.94;;;20.54
71807;BMP280;59655;42.590;23.364;2023-07-31T07:15:24;91295.38;;;20.50
71807;BMP280;59655;42.590;23.364;2023-07-31T07:17:50;91295.56;;;20.54
71807;BMP280;59655;42.590;23.364;2023-07-31T07:20:15;91288.78;;;20.69
71807;BMP280;59655;42.590;23.364;2023-07-31T07:22:41;91292.88;;;20.54
71807;BMP280;59655;42.590;23.364;2023-07-31T07:25:08;91290.78;;;20.69
71807;BMP280;59655;42.590;23.364;2023-07-31T07:27:34;91291.84;;;20.77
71807;BMP280;59655;42.590;23.364;2023-07-31T07:29:59;91310.81;;;20.80
71807;BMP280;59655;42.590;23.364;2023-07-31T07:32:25;91307.94;;;20.75
71807;BMP280;59655;42.590;23.364;2023-07-31T07:34:50;91305.31;;;20.62
71807;BMP280;59655;42.590;23.364;2023-07-31T07:37:16;91309.31;;;20.76
71807;BMP280;59655;42.590;23.364;2023-07-31T07:39:41;91317.84;;;20.87
71807;BMP280;59655;42.590;23.364;2023-07-31T07:42:07;91319.47;;;20.94
71807;BMP280;59655;42.590;23.364;2023-07-31T07:44:32;91315.41;;;20.93
71807;BMP280;59655;42.590;23.364;2023-07-31T07:46:58;91311.38;;;20.94
71807;BMP280;59655;42.590;23.364;2023-07-31T07:49:23;91335.44;;;20.88
71807;BMP280;59655;42.590;23.364;2023-07-31T07:51:49;91319.47;;;20.94
71807;BMP280;59655;42.590;23.364;2023-07-31T07:54:15;91322.63;;;21.04
71807;BMP280;59655;42.590;23.364;2023-07-31T07:56:42;91320.78;;;21.09
71807;BMP280;59655;42.590;23.364;2023-07-31T07:59:07;91363.88;;;21.07
71807;BMP280;59655;42.590;23.364;2023-07-31T08:01:33;91349.78;;;21.08
71807;BMP280;59655;42.590;23.364;2023-07-31T08:03:58;91330.34;;;21.12
71807;BMP280;59655;42.590;23.364;2023-07-31T08:06:24;91331.41;;;21.20
71807;BMP280;59655;42.590;23.364;2023-07-31T08:08:49;91335.16;;;21.29
71807;BMP280;59655;42.590;23.364;2023-07-31T08:11:15;91328.06;;;21.38
71807;BMP280;59655;42.590;23.364;2023-07-31T08:13:40;91327.59;;;21.43
71807;BMP280;59655;42.590;23.364;2023-07-31T08:16:06;91331.19;;;21.32
71807;BMP280;59655;42.590;23.364;2023-07-31T08:18:31;91321.97;;;21.37
71807;BMP280;59655;42.590;23.364;2023-07-31T08:21:02;91327.69;;;21.45
71807;BMP280;59655;42.590;23.364;2023-07-31T08:23:28;91335.41;;;21.53
71807;BMP280;59655;42.590;23.364;2023-07-31T08:25:53;91337.50;;;21.55
71807;BMP280;59655;42.590;23.364;2023-07-31T08:28:19;91338.66;;;21.49
71807;BMP280;59655;42.590;23.364;2023-07-31T08:30:44;91319.75;;;21.49
71807;BMP280;59655;42.590;23.364;2023-07-31T08:33:10;91328.59;;;21.52
71807;BMP280;59655;42.590;23.364;2023-07-31T08:35:36;91330.66;;;21.36
71807;BMP280;59655;42.590;23.364;2023-07-31T08:38:01;91334.63;;;21.50
71807;BMP280;59655;42.590;23.364;2023-07-31T08:40:27;91341.66;;;21.58
71807;BMP280;59655;42.590;23.364;2023-07-31T08:42:55;91345.75;;;21.59
71807;BMP280;59655;42.590;23.364;2023-07-31T08:45:27;91341.56;;;21.56
71807;BMP280;59655;42.590;23.364;2023-07-31T08:47:52;91339.69;;;21.58
71807;BMP280;59655;42.590;23.364;2023-07-31T08:50:19;91343.91;;;21.63
71807;BMP280;59655;42.590;23.364;2023-07-31T08:52:50;91348.50;;;21.27
71807;BMP280;59655;42.590;23.364;2023-07-31T08:55:15;91341.66;;;21.58
71807;BMP280;59655;42.590;23.364;2023-07-31T08:57:42;91340.34;;;21.59
71807;BMP280;59655;42.590;23.364;2023-07-31T09:00:09;91372.09;;;21.58
71807;BMP280;59655;42.590;23.364;2023-07-31T09:05:13;91337.31;;;21.66
71807;BMP280;59655;42.590;23.364;2023-07-31T09:07:40;91351.69;;;21.89
71807;BMP280;59655;42.590;23.364;2023-07-31T09:10:06;91353.22;;;21.94
71807;BMP280;59655;42.590;23.364;2023-07-31T09:12:32;91340.13;;;22.04
71807;BMP280;59655;42.590;23.364;2023-07-31T09:14:58;91347.97;;;21.98
71807;BMP280;59655;42.590;23.364;2023-07-31T09:19:56;91359.22;;;21.74
71807;BMP280;59655;42.590;23.364;2023-07-31T09:22:35;91338.50;;;21.63
71807;BMP280;59655;42.590;23.364;2023-07-31T09:30:13;91327.00;;;21.96
71807;BMP280;59655;42.590;23.364;2023-07-31T09:32:38;91329.50;;;21.92
71807;BMP280;59655;42.590;23.364;2023-07-31T09:35:21;91322.88;;;21.78
71807;BMP280;59655;42.590;23.364;2023-07-31T09:37:53;91323.88;;;21.86
71807;BMP280;59655;42.590;23.364;2023-07-31T09:43:02;91321.59;;;21.96
71807;BMP280;59655;42.590;23.364;2023-07-31T09:45:29;91315.00;;;22.02
71807;BMP280;59655;42.590;23.364;2023-07-31T09:47:55;91309.13;;;22.07
71807;BMP280;59655;42.590;23.364;2023-07-31T09:50:22;91307.91;;;22.10
71807;BMP280;59655;42.590;23.364;2023-07-31T09:52:49;91309.41;;;22.15
71807;BMP280;59655;42.590;23.364;2023-07-31T09:55:14;91311.59;;;22.19
71807;BMP280;59655;42.590;23.364;2023-07-31T09:57:42;91300.22;;;22.22
71807;BMP280;59655;42.590;23.364;2023-07-31T10:00:11;91301.94;;;22.32
71807;BMP280;59655;42.590;23.364;2023-07-31T10:02:38;91304.03;;;22.33
71807;BMP280;59655;42.590;23.364;2023-07-31T10:05:05;91309.88;;;22.28
71807;BMP280;59655;42.590;23.364;2023-07-31T10:07:32;91326.66;;;22.42
71807;BMP280;59655;42.590;23.364;2023-07-31T10:09:59;91324.72;;;22.44
71807;BMP280;59655;42.590;23.364;2023-07-31T10:12:29;91314.66;;;22.47
71807;BMP280;59655;42.590;23.364;2023-07-31T10:14:55;91309.41;;;22.71
71807;BMP280;59655;42.590;23.364;2023-07-31T10:17:24;91314.25;;;22.55
71807;BMP280;59655;42.590;23.364;2023-07-31T10:19:49;91308.16;;;22.54
71807;BMP280;59655;42.590;23.364;2023-07-31T10:22:16;91308.22;;;22.56
71807;BMP280;59655;42.590;23.364;2023-07-31T10:24:45;91304.13;;;22.55
71807;BMP280;59655;42.590;23.364;2023-07-31T10:27:10;91328.06;;;22.63
71807;BMP280;59655;42.590;23.364;2023-07-31T10:29:40;91310.44;;;22.62
71807;BMP280;59655;42.590;23.364;2023-07-31T10:32:11;91301.50;;;22.57
71807;BMP280;59655;42.590;23.364;2023-07-31T10:34:38;91309.66;;;22.59
71807;BMP280;59655;42.590;23.364;2023-07-31T10:45:12;91291.50;;;23.02
71807;BMP280;59655;42.590;23.364;2023-07-31T10:47:45;91308.16;;;22.94
71807;BMP280;59655;42.590;23.364;2023-07-31T10:50:21;91290.88;;;23.03
71807;BMP280;59655;42.590;23.364;2023-07-31T10:52:49;91288.09;;;23.01
71807;BMP280;59655;42.590;23.364;2023-07-31T10:55:16;91293.53;;;23.01
71807;BMP280;59655;42.590;23.364;2023-07-31T10:57:47;91287.97;;;22.97
71807;BMP280;59655;42.590;23.364;2023-07-31T11:00:26;91280.91;;;22.88
71807;BMP280;59655;42.590;23.364;2023-07-31T11:03:06;91278.69;;;23.02
71807;BMP280;59655;42.590;23.364;2023-07-31T11:05:48;91277.34;;;23.03
71807;BMP280;59655;42.590;23.364;2023-07-31T11:08:16;91275.97;;;23.02
71807;BMP280;59655;42.590;23.364;2023-07-31T11:10:43;91278.25;;;23.10
71807;BMP280;59655;42.590;23.364;2023-07-31T11:13:08;91286.78;;;23.22
71807;BMP280;59655;42.590;23.364;2023-07-31T11:15:34;91275.53;;;23.30
71807;BMP280;59655;42.590;23.364;2023-07-31T11:18:01;91268.81;;;23.33
71807;BMP280;59655;42.590;23.364;2023-07-31T11:20:38;91268.75;;;23.31
71807;BMP280;59655;42.590;23.364;2023-07-31T11:23:06;91270.41;;;23.40
71807;BMP280;59655;42.590;23.364;2023-07-31T11:25:32;91274.75;;;23.49
71807;BMP280;59655;42.590;23.364;2023-07-31T11:28:05;91270.72;;;23.50
71807;BMP280;59655;42.590;23.364;2023-07-31T11:30:31;91280.06;;;23.45
71807;BMP280;59655;42.590;23.364;2023-07-31T11:32:56;91276.34;;;23.56
71807;BMP280;59655;42.590;23.364;2023-07-31T11:35:22;91269.09;;;23.85
71807;BMP280;59655;42.590;23.364;2023-07-31T11:37:47;91272.81;;;23.74
71807;BMP280;59655;42.590;23.364;2023-07-31T11:40:14;91280.44;;;23.79
71807;BMP280;59655;42.590;23.364;2023-07-31T11:42:40;91281.63;;;23.74
71807;BMP280;59655;42.590;23.364;2023-07-31T11:45:07;91281.06;;;23.78
71807;BMP280;59655;42.590;23.364;2023-07-31T11:47:33;91294.16;;;23.85
71807;BMP280;59655;42.590;23.364;2023-07-31T11:50:06;91273.84;;;23.86
71807;BMP280;59655;42.590;23.364;2023-07-31T11:52:40;91257.00;;;23.90
71807;BMP280;59655;42.590;23.364;2023-07-31T11:55:08;91258.06;;;24.03
71807;BMP280;59655;42.590;23.364;2023-07-31T11:57:36;91264.88;;;24.04
71807;BMP280;59655;42.590;23.364;2023-07-31T12:00:02;91258.00;;;24.01
71807;BMP280;59655;42.590;23.364;2023-07-31T12:02:28;91256.22;;;24.09
71807;BMP280;59655;42.590;23.364;2023-07-31T12:04:53;91266.00;;;24.18
71807;BMP280;59655;42.590;23.364;2023-07-31T12:07:19;91274.34;;;24.03
71807;BMP280;59655;42.590;23.364;2023-07-31T12:09:55;91253.16;;;23.97
71807;BMP280;59655;42.590;23.364;2023-07-31T12:12:22;91256.28;;;23.87
71807;BMP280;59655;42.590;23.364;2023-07-31T12:14:48;91255.31;;;23.79
71807;BMP280;59655;42.590;23.364;2023-07-31T12:17:14;91248.38;;;23.95
71807;BMP280;59655;42.590;23.364;2023-07-31T12:19:39;91249.47;;;24.10
71807;BMP280;59655;42.590;23.364;2023-07-31T12:22:13;91243.22;;;24.06
71807;BMP280;59655;42.590;23.364;2023-07-31T12:24:40;91235.78;;;24.30
71807;BMP280;59655;42.590;23.364;2023-07-31T12:27:15;91236.41;;;24.53
71807;BMP280;59655;42.590;23.364;2023-07-31T12:29:43;91239.81;;;24.79
71807;BMP280;59655;42.590;23.364;2023-07-31T12:32:25;91231.56;;;25.03
71807;BMP280;59655;42.590;23.364;2023-07-31T12:34:51;91219.53;;;25.10
71807;BMP280;59655;42.590;23.364;2023-07-31T12:37:16;91232.78;;;25.26
71807;BMP280;59655;42.590;23.364;2023-07-31T12:39:42;91233.09;;;25.38
71807;BMP280;59655;42.590;23.364;2023-07-31T12:42:07;91231.81;;;25.13
71807;BMP280;59655;42.590;23.364;2023-07-31T12:44:33;91236.06;;;25.20
71807;BMP280;59655;42.590;23.364;2023-07-31T12:46:58;91249.75;;;25.55
71807;BMP280;59655;42.590;23.364;2023-07-31T12:49:24;91226.63;;;25.24
71807;BMP280;59655;42.590;23.364;2023-07-31T12:51:50;91228.69;;;25.55
71807;BMP280;59655;42.590;23.364;2023-07-31T12:54:16;91222.66;;;25.59
71807;BMP280;59655;42.590;23.364;2023-07-31T12:56:41;91218.41;;;26.16
71807;BMP280;59655;42.590;23.364;2023-07-31T12:59:06;91223.94;;;26.96
71807;BMP280;59655;42.590;23.364;2023-07-31T13:01:32;91230.13;;;27.94
71807;BMP280;59655;42.590;23.364;2023-07-31T13:03:57;91218.78;;;28.80
71807;BMP280;59655;42.590;23.364;2023-07-31T13:06:24;91209.66;;;29.43
71807;BMP280;59655;42.590;23.364;2023-07-31T13:08:49;91201.75;;;30.04
71807;BMP280;59655;42.590;23.364;2023-07-31T13:11:15;91207.19;;;29.90
71807;BMP280;59655;42.590;23.364;2023-07-31T13:13:40;91217.97;;;29.55
71807;BMP280;59655;42.590;23.364;2023-07-31T13:16:05;91222.72;;;29.52
71807;BMP280;59655;42.590;23.364;2023-07-31T13:18:31;91206.28;;;29.50
71807;BMP280;59655;42.590;23.364;2023-07-31T13:20:56;91228.84;;;29.51
71807;BMP280;59655;42.590;23.364;2023-07-31T13:23:21;91226.38;;;29.94
71807;BMP280;59655;42.590;23.364;2023-07-31T13:25:47;91220.31;;;30.26
71807;BMP280;59655;42.590;23.364;2023-07-31T13:28:12;91220.41;;;30.81
71807;BMP280;59655;42.590;23.364;2023-07-31T13:30:38;91214.72;;;29.93
71807;BMP280;59655;42.590;23.364;2023-07-31T13:33:03;91215.09;;;29.39
71807;BMP280;59655;42.590;23.364;2023-07-31T13:35:29;91217.38;;;28.13
71807;BMP280;59655;42.590;23.364;2023-07-31T13:37:56;91211.97;;;28.15
71807;BMP280;59655;42.590;23.364;2023-07-31T13:40:22;91215.00;;;28.43
71807;BMP280;59655;42.590;23.364;2023-07-31T13:42:47;91219.44;;;28.14
71807;BMP280;59655;42.590;23.364;2023-07-31T13:45:13;91227.88;;;26.87
71807;BMP280;59655;42.590;23.364;2023-07-31T13:47:39;91222.13;;;26.69
71807;BMP280;59655;42.590;23.364;2023-07-31T13:50:04;91219.22;;;27.45
71807;BMP280;59655;42.590;23.364;2023-07-31T13:52:30;91232.03;;;27.35
71807;BMP280;59655;42.590;23.364;2023-07-31T13:54:55;91231.16;;;27.68
71807;BMP280;59655;42.590;23.364;2023-07-31T13:57:20;91216.34;;;27.86
71807;BMP280;59655;42.590;23.364;2023-07-31T13:59:46;91222.72;;;27.50
71807;BMP280;59655;42.590;23.364;2023-07-31T14:02:11;91220.50;;;27.89
71807;BMP280;59655;42.590;23.364;2023-07-31T14:04:37;91215.97;;;28.72
71807;BMP280;59655;42.590;23.364;2023-07-31T14:07:02;91221.66;;;29.01
71807;BMP280;59655;42.590;23.364;2023-07-31T14:09:29;91226.03;;;28.53
71807;BMP280;59655;42.590;23.364;2023-07-31T14:11:55;91221.97;;;27.96
71807;BMP280;59655;42.590;23.364;2023-07-31T14:14:21;91210.03;;;28.25
71807;BMP280;59655;42.590;23.364;2023-07-31T14:16:46;91217.94;;;28.03
71807;BMP280;59655;42.590;23.364;2023-07-31T14:19:11;91220.09;;;27.58
71807;BMP280;59655;42.590;23.364;2023-07-31T14:21:37;91218.66;;;28.04
71807;BMP280;59655;42.590;23.364;2023-07-31T14:24:02;91218.44;;;27.87